Perth Jandakot Airport

YPJT · Western Australia, 澳大利亚

METAR的历史 YPJT · Perth Jandakot Airport

下面你可以看到过去几天的METARs。 选择年份以浏览从2007年开始的旧METAR。

2024年7月21日

时间 代码 天气 温度 能见度 天花板 METAR/SPECI
20:30
V
16 °C 10 km+ 4.100 ft 320° 320° 12 kt METAR YPJT 211230Z AUTO 32012KT 9999 // FEW028 SCT036 BKN041 16/13 Q1020
20:00
V
15 °C 10 km+ 5.200 ft 320° 320° 6 kt METAR YPJT 211200Z AUTO 32006KT 9999 // FEW033 SCT043 OVC052 15/13 Q1020
19:30
V
15 °C 10 km+ 3.300 ft 290° 290° 14 kt METAR YPJT 211130Z AUTO 29014KT 9999 // SCT023 SCT027 BKN033 15/14 Q1021
19:00
V
15 °C 10 km+ 3.300 ft 330° 330° 6 kt METAR YPJT 211100Z AUTO 33006KT 9999 // BKN033 BKN044 BKN054 15/13 Q1021
18:30
V
16 °C 10 km+ 3.600 ft 310° 310° 12 kt METAR YPJT 211030Z AUTO 31012KT 9999 // OVC036 16/13 Q1020 RERA RF00.0/003.0
18:03
M
15 °C 10 km+ 2.900 ft 320° 320° 9 kt METAR YPJT 211003Z AUTO 32009KT 9999 // FEW006 SCT016 BKN029 15/14 Q1020 RESHRA
17:56
M
15 °C 10 km+ 1.800 ft 320° 320° 11 kt METAR YPJT 210956Z AUTO 32011KT 9999 SHRA FEW006 SCT014 BKN018 15/14 Q1020
17:30
I
15 °C 4,1 km 3.400 ft 290° 290° 17 kt METAR YPJT 210930Z AUTO 29017KT 4100 RA FEW011 SCT023 BKN034 15/14 Q1020
17:24
M
16 °C 5 km 3.400 ft 300° 300° 14 kt METAR YPJT 210924Z AUTO 30014KT 5000 RA FEW011 SCT023 BKN034 16/14 Q1020
17:00
V
17 °C 10 km+ 3.800 ft 310° 310° 13 kt METAR YPJT 210900Z AUTO 31013KT 9999 // FEW034 BKN038 BKN045 17/12 Q1020
16:30
V
16 °C 10 km+ 4.300 ft 300° 300° 11 kt METAR YPJT 210830Z AUTO 30011KT 9999 // FEW020 SCT036 BKN043 16/13 Q1020
16:00
V
17 °C 10 km+ 4.300 ft 290° 290° 16 kt METAR YPJT 210800Z AUTO 29016KT 9999 // SCT023 SCT032 BKN043 17/13 Q1020
15:30
V
18 °C 10 km+ 3.600 ft 330° 330° 13 kt METAR YPJT 210730Z AUTO 33013KT 9999 // FEW023 SCT029 BKN036 18/14 Q1020
15:00
V
19 °C 10 km+ 3.100 ft 310° 310° 17 kt METAR YPJT 210700Z AUTO 31017KT 9999 // SCT025 BKN031 BKN043 19/14 Q1020
14:48
M
18 °C 10 km+ 2.500 ft 300° 300° 19 kt METAR YPJT 210648Z AUTO 30019KT 9999 -SHRA BKN025 BKN031 OVC059 18/13 Q1020
14:30
V
17 °C 10 km+ 4.100 ft 310° 310° 8 kt METAR YPJT 210630Z AUTO 31008KT 9999 // SCT032 BKN041 BKN053 17/14 Q1020 RERA
14:15
V
17 °C 10 km+ 3.200 ft 310° 310° 10 kt METAR YPJT 210615Z AUTO 31010KT 9999 // FEW013 SCT019 BKN032 17/14 Q1020 RESHRA
14:00
M
16 °C 5 km 3.000 ft 300° 300° 17 kt METAR YPJT 210600Z AUTO 30017KT 5000 SHRA SCT015 BKN030 BKN041 16/14 Q1020
13:30
V
17 °C 10 km+ 3.500 ft 310° 310° 10 kt METAR YPJT 210530Z AUTO 31010KT 9999 // FEW022 BKN035 BKN042 17/14 Q1020
13:00
V
18 °C 10 km+ 4.100 ft 290° 290° 16 kt METAR YPJT 210500Z AUTO 29016KT 9999 // FEW022 SCT029 BKN041 18/13 Q1020
12:30
V
19 °C 10 km+ 5.000 ft 290° 290° 14 kt METAR YPJT 210430Z AUTO 29014KT 9999 // FEW027 SCT042 BKN050 19/13 Q1021
12:00
V
19 °C 10 km+ 5.800 ft 310° 310° 12 kt METAR YPJT 210400Z AUTO 31012KT 9999 // FEW042 BKN058 19/13 Q1021
11:30
V
17 °C 10 km+ 3.800 ft 300° 300° 17 - 29 kt METAR YPJT 210330Z AUTO 30017G29KT 9999 // FEW024 BKN038 OVC058 17/13 Q1022
11:00
V
18 °C 10 km+ 4.600 ft 290° 290° 14 kt METAR YPJT 210300Z AUTO 29014KT 9999 // FEW042 BKN046 OVC059 18/12 Q1022
10:30
V
18 °C 10 km+ 5.000 ft 350° 350° 10 kt METAR YPJT 210230Z AUTO 35010KT 9999 // FEW023 BKN050 BKN063 18/14 Q1022
10:00
V
17 °C 10 km+ 5.200 ft 310° 310° 8 kt METAR YPJT 210200Z AUTO 31008KT 9999 // FEW041 SCT046 BKN052 17/14 Q1022
09:30
V
17 °C 10 km+ 5.700 ft 270° 270° 10 kt METAR YPJT 210130Z AUTO 27010KT 9999 // FEW041 SCT047 OVC057 17/14 Q1022
09:00
V
17 °C 10 km+ 5.400 ft 290° 290° 9 kt METAR YPJT 210100Z AUTO 29009KT 9999 // FEW019 OVC054 17/13 Q1022
08:30
V
16 °C 10 km+ 4.200 ft 270° 270° 10 kt METAR YPJT 210030Z AUTO 27010KT 9999 -SHRA FEW016 SCT026 BKN042 16/13 Q1022
08:00
V
15 °C 10 km+ 4.600 ft 300° 300° 10 kt METAR YPJT 210000Z AUTO 30010KT 9999 -SHRA FEW018 SCT024 BKN046 15/13 Q1021
07:30
V
15 °C 10 km+ 4.400 ft 290° 290° 9 kt METAR YPJT 202330Z AUTO 29009KT 9999 // FEW031 SCT040 BKN044 15/13 Q1021
07:00
V
15 °C 10 km+ 3.100 ft 280° 280° 12 kt METAR YPJT 202300Z AUTO 28012KT 9999 -SHRA FEW022 BKN031 BKN040 15/13 Q1021
06:30
V
15 °C 10 km+ 3.800 ft 280° 280° 9 kt METAR YPJT 202230Z AUTO 28009KT 9999 // BKN038 BKN044 OVC053 15/12 Q1021
06:00
M
15 °C 10 km+ 3.000 ft 280° 280° 11 kt METAR YPJT 202200Z AUTO 28011KT 9999 // FEW022 BKN030 BKN040 15/13 Q1021
05:30
V
14 °C 10 km+ 5.800 ft 280° 280° 6 kt METAR YPJT 202130Z AUTO 28006KT 9999 // FEW038 BKN058 14/12 Q1021
05:01
V
15 °C 10 km+ 4.800 ft 320° 320° 7 kt METAR YPJT 202101Z AUTO 32007KT 9999 -SHRA FEW014 SCT031 OVC048 15/13 Q1021
04:50
M
15 °C 5 km 3.100 ft 290° 290° 12 kt METAR YPJT 202050Z AUTO 29012KT 5000 -SHRA SCT016 BKN031 BKN044 15/13 Q1021
04:30
V
15 °C 10 km+ 4.300 ft 270° 270° 13 kt METAR YPJT 202030Z AUTO 27013KT 9999 // FEW018 SCT027 BKN043 15/12 Q1021
04:00
M
15 °C 10 km+ 2.900 ft 260° 260° 9 kt METAR YPJT 202000Z AUTO 26009KT 9999 -SHRA SCT021 BKN029 BKN040 15/13 Q1021
03:42
V
16 °C 10 km+ 4.500 ft 300° 300° 15 - 25 kt METAR YPJT 201942Z AUTO 30015G25KT 9999 -SHRA FEW025 SCT036 BKN045 16/12 Q1021
03:30
V
16 °C 10 km+ 4.300 ft 280° 280° 11 kt METAR YPJT 201930Z AUTO 28011KT 9999 // FEW028 BKN043 BKN051 16/12 Q1021
03:00
V
16 °C 10 km+ 4.500 ft 280° 280° 11 kt METAR YPJT 201900Z AUTO 28011KT 9999 // FEW019 BKN045 BKN056 16/12 Q1021
02:41
V
16 °C 10 km+ 3.600 ft 270° 270° 18 - 28 kt METAR YPJT 201841Z AUTO 27018G28KT 9999 -RA SCT019 SCT029 BKN036 16/13 Q1021
02:33
V
17 °C 10 km+ 4.600 ft 270° 270° 23 kt METAR YPJT 201833Z AUTO 27023KT 9999 // FEW019 SCT032 BKN046 17/12 Q1021
02:00
V
16 °C 10 km+ 4.500 ft 290° 290° 11 kt METAR YPJT 201800Z AUTO 29011KT 9999 // BKN045 OVC050 16/12 Q1021
01:30
V
16 °C 8 km 3.900 ft 290° 290° 16 kt METAR YPJT 201730Z AUTO 29016KT 8000 -SHRA FEW033 BKN039 OVC047 16/12 Q1021
01:20
V
16 °C 10 km+ 3.900 ft 300° 300° 15 - 29 kt METAR YPJT 201720Z AUTO 30015G29KT 9999 -RA FEW033 BKN039 BKN047 16/12 Q1022
01:00
V
17 °C 10 km+ 6.400 ft 300° 300° 13 kt METAR YPJT 201700Z AUTO 30013KT 9999 // SCT039 OVC064 17/10 Q1021
00:30
V
17 °C 10 km+ 6.600 ft 300° 300° 13 kt METAR YPJT 201630Z AUTO 30013KT 9999 // SCT056 BKN066 17/11 Q1022
00:00
V
16 °C 10 km+ 4.900 ft 290° 290° 13 kt METAR YPJT 201600Z AUTO 29013KT 9999 // FEW036 OVC049 16/11 Q1022

2024年7月20日

时间 代码 天气 温度 能见度 天花板 METAR/SPECI
23:30
V
16 °C 10 km+ 5.900 ft 300° 300° 12 kt METAR YPJT 201530Z AUTO 30012KT 9999 // FEW049 BKN059 16/10 Q1022
23:00
V
16 °C 10 km+ - 300° 300° 11 kt METAR YPJT 201500Z AUTO 30011KT 9999 // FEW061 16/10 Q1022 RF00.0/000.4
22:30
V
16 °C 10 km+ - 300° 300° 11 kt METAR YPJT 201430Z AUTO 30011KT 9999 // NCD 16/10 Q1022 RF00.0/000.4
22:00
V
16 °C 10 km+ - 310° 310° 11 kt METAR YPJT 201400Z AUTO 31011KT 9999 // FEW027 16/12 Q1022 RF00.0/000.4
21:30
V
16 °C 10 km+ - 310° 310° 11 kt METAR YPJT 201330Z AUTO 31011KT 9999 // FEW058 16/11 Q1022 RF00.0/000.4
21:00
V
16 °C 10 km+ 6.200 ft 300° 300° 12 kt METAR YPJT 201300Z AUTO 30012KT 9999 // BKN062 16/11 Q1022 RF00.0/000.4
20:30
V
16 °C 10 km+ 6.100 ft 300° 300° 14 kt METAR YPJT 201230Z AUTO 30014KT 9999 // FEW038 BKN061 16/10 Q1022
20:00
V
16 °C 10 km+ - 300° 300° 12 kt METAR YPJT 201200Z AUTO 30012KT 9999 // SCT063 16/10 Q1022 RF00.0/000.4
19:30
V
16 °C 10 km+ - 300° 300° 12 kt METAR YPJT 201130Z AUTO 30012KT 9999 // NCD 16/10 Q1022 RF00.0/000.4
19:00
V
17 °C 10 km+ 6.700 ft 290° 290° 12 kt METAR YPJT 201100Z AUTO 29012KT 9999 // BKN067 17/09 Q1022 RF00.0/000.4
18:30
V
17 °C 10 km+ - 300° 300° 13 kt METAR YPJT 201030Z AUTO 30013KT 9999 // NCD 17/10 Q1022 RF00.0/000.4
18:00
V
17 °C 10 km+ - 300° 300° 13 kt METAR YPJT 201000Z AUTO 30013KT 9999 // NCD 17/11 Q1022 RF00.0/000.4
17:30
V
17 °C 10 km+ - 300° 300° 16 kt METAR YPJT 200930Z AUTO 30016KT 9999 // FEW034 17/11 Q1022 RF00.0/000.4
17:00
V
18 °C 10 km+ 6.600 ft 300° 300° 15 kt METAR YPJT 200900Z AUTO 30015KT 9999 // BKN066 18/09 Q1022 RF00.0/000.4
16:30
V
18 °C 10 km+ 6.400 ft 280° 280° 13 kt METAR YPJT 200830Z AUTO 28013KT 9999 // OVC064 18/10 Q1022 RF00.0/000.4
16:00
V
18 °C 10 km+ 6.600 ft 290° 290° 17 kt METAR YPJT 200800Z AUTO 29017KT 9999 // SCT044 OVC066 18/10 Q1022
15:30
V
18 °C 10 km+ 6.800 ft 290° 290° 17 kt METAR YPJT 200730Z AUTO 29017KT 9999 // OVC068 18/09 Q1022 RF00.0/000.4
15:00
V
18 °C 10 km+ 6.800 ft 280° 280° 16 kt METAR YPJT 200700Z AUTO 28016KT 9999 // FEW035 SCT059 BKN068 18/09 Q1022
14:30
V
18 °C 10 km+ 6.400 ft 290° 290° 13 kt METAR YPJT 200630Z AUTO 29013KT 9999 // SCT037 OVC064 OVC073 18/12 Q1022
14:00
V
17 °C 10 km+ 6.800 ft 300° 300° 15 - 25 kt METAR YPJT 200600Z AUTO 30015G25KT 9999 // FEW017 SCT043 BKN068 17/11 Q1022
13:35
M
16 °C 5 km 4.400 ft 280° 280° 19 kt METAR YPJT 200535Z AUTO 28019KT 5000 -RA FEW017 SCT037 BKN044 16/12 Q1022
13:00
V
18 °C 10 km+ 6.800 ft 290° 290° 17 kt METAR YPJT 200500Z AUTO 29017KT 9999 // FEW055 OVC068 18/10 Q1022
12:33
V
19 °C 10 km+ 6.600 ft 290° 290° 15 - 27 kt METAR YPJT 200433Z AUTO 29015G27KT 9999 // FEW039 OVC066 19/09 Q1023
12:00
V
17 °C 10 km+ 4.800 ft 270° 270° 19 - 30 kt METAR YPJT 200400Z AUTO 27019G30KT 9999 // FEW041 BKN048 OVC056 17/11 Q1023
11:46
V
18 °C 10 km+ 5.300 ft 270° 270° 16 - 26 kt METAR YPJT 200346Z AUTO 27016G26KT 9999 // BKN053 BKN064 OVC072 18/10 Q1023
11:30
V
18 °C 10 km+ 5.900 ft 300° 300° 19 kt METAR YPJT 200330Z AUTO 30019KT 9999 // SCT049 BKN059 OVC070 18/08 Q1023
11:00
V
18 °C 10 km+ 6.300 ft 310° 310° 15 kt METAR YPJT 200300Z AUTO 31015KT 9999 // OVC063 18/10 Q1023 RF00.0/000.0
10:30
V
18 °C 10 km+ - 310° 310° 14 kt METAR YPJT 200230Z AUTO 31014KT 9999 // SCT065 18/10 Q1023 RF00.0/000.0
10:00
V
18 °C 10 km+ 6.000 ft 300° 300° 15 kt METAR YPJT 200200Z AUTO 30015KT 9999 // BKN060 OVC069 18/10 Q1024
09:44
V
17 °C 10 km+ 6.500 ft 290° 290° 16 - 26 kt METAR YPJT 200144Z AUTO 29016G26KT 9999 // FEW040 OVC065 17/10 Q1024
09:30
V
18 °C 10 km+ 6.500 ft 290° 290° 15 kt METAR YPJT 200130Z AUTO 29015KT 9999 // FEW040 SCT048 OVC065 18/10 Q1023
09:00
V
16 °C 10 km+ 6.300 ft 290° 290° 9 kt METAR YPJT 200100Z AUTO 29009KT 9999 // OVC063 16/10 Q1023 RF00.0/002.2
08:30
V
15 °C 10 km+ 5.800 ft 300° 300° 9 kt METAR YPJT 200030Z AUTO 30009KT 9999 SHRA FEW026 SCT033 BKN058 15/12 Q1023
08:00
V
15 °C 10 km+ 6.900 ft 330° 330° 10 kt METAR YPJT 200000Z AUTO 33010KT 9999 // FEW036 BKN069 15/11 Q1023
07:42
V
16 °C 10 km+ 6.900 ft 310° 310° 17 kt METAR YPJT 192342Z AUTO 31017KT 9999 // SCT034 SCT044 OVC069 16/11 Q1023
07:30
V
16 °C 10 km+ 6.900 ft 270° 270° 8 kt METAR YPJT 192330Z AUTO 27008KT 9999 // SCT044 OVC069 16/11 Q1023
07:00
V
15 °C 10 km+ 5.100 ft 330° 330° 5 kt METAR YPJT 192300Z AUTO 33005KT 9999 // SCT043 BKN051 OVC070 15/11 Q1023
06:30
V
14 °C 10 km+ 4.800 ft 310° 310° 7 kt METAR YPJT 192230Z AUTO 31007KT 9999 // SCT041 BKN048 14/10 Q1022
06:00
V
15 °C 10 km+ 7.400 ft 300° 300° 8 kt METAR YPJT 192200Z AUTO 30008KT 9999 // SCT053 SCT064 BKN074 15/09 Q1022
05:30
V
15 °C 10 km+ 4.900 ft 300° 300° 9 kt METAR YPJT 192130Z AUTO 30009KT 9999 // BKN049 BKN055 OVC068 15/10 Q1022
05:00
V
14 °C 10 km+ 5.500 ft 260° 260° 9 kt METAR YPJT 192100Z AUTO 26009KT 9999 // BKN055 OVC068 14/10 Q1022
04:30
V
13 °C 10 km+ 5.900 ft 270° 270° 12 kt METAR YPJT 192030Z AUTO 27012KT 220V030 9999 -SHRA BKN059 OVC071 13/12 Q1022
04:00
V
12 °C 10 km+ 6.600 ft 020° 020° 7 kt METAR YPJT 192000Z AUTO 02007KT 9999 // FEW047 SCT054 OVC066 12/11 Q1022
03:30
V
13 °C 10 km+ 5.100 ft 360° 360° 4 kt METAR YPJT 191930Z AUTO 36004KT 9999 -SHRA FEW026 SCT035 BKN051 13/11 Q1022
03:00
V
13 °C 10 km+ 5.200 ft 310° 310° 6 kt METAR YPJT 191900Z AUTO 31006KT 270V330 9999 // FEW034 SCT044 BKN052 13/10 Q1022
02:30
V
14 °C 8 km 4.900 ft 290° 290° 17 kt METAR YPJT 191830Z AUTO 29017KT 8000 -RA FEW034 SCT041 BKN049 14/11 Q1023
02:25
V
14 °C 10 km+ 6.700 ft 280° 280° 19 kt METAR YPJT 191825Z AUTO 28019KT 9999 +DZ FEW035 SCT043 BKN067 14/11 Q1023
02:00
V
12 °C 10 km+ 6.500 ft 310° 310° 3 kt METAR YPJT 191800Z AUTO 31003KT 9999 // BKN065 12/08 Q1022 RF00.0/001.2
01:30
V
14 °C 10 km+ 6.500 ft 290° 290° 6 kt METAR YPJT 191730Z AUTO 29006KT 9999 // OVC065 14/08 Q1023 RF00.0/001.2
01:00
V
13 °C 10 km+ - 290° 290° 7 kt METAR YPJT 191700Z AUTO 29007KT 9999 // NCD 13/08 Q1023 RF00.0/001.2
00:30
V
14 °C 10 km+ 6.600 ft 280° 280° 8 kt METAR YPJT 191630Z AUTO 28008KT 9999 // BKN066 14/08 Q1023 RF00.0/001.2
00:00
V
14 °C 10 km+ 6.600 ft 290° 290° 7 kt METAR YPJT 191600Z AUTO 29007KT 9999 // FEW044 BKN066 14/08 Q1023

2024年7月19日

时间 代码 天气 温度 能见度 天花板 METAR/SPECI
23:30
V
14 °C 10 km+ - 300° 300° 9 kt METAR YPJT 191530Z AUTO 30009KT 9999 // SCT070 14/08 Q1023 RF00.0/001.2
23:00
V
13 °C 10 km+ 7.200 ft 330° 330° 5 kt METAR YPJT 191500Z AUTO 33005KT 9999 // OVC072 13/10 Q1023 RF00.0/001.2
22:30
V
13 °C 10 km+ 5.900 ft 350° 350° 5 kt METAR YPJT 191430Z AUTO 35005KT 9999 // FEW041 SCT047 BKN059 13/10 Q1024
22:00
V
14 °C 10 km+ 6.900 ft 320° 320° 7 kt METAR YPJT 191400Z AUTO 32007KT 9999 // SCT041 OVC069 14/09 Q1024
21:30
V
13 °C 10 km+ 4.900 ft 290° 290° 4 kt METAR YPJT 191330Z AUTO 29004KT 9999 -SHRA FEW025 SCT043 BKN049 13/10 Q1024
21:16
V
14 °C 10 km+ 7.000 ft 280° 280° 19 kt METAR YPJT 191316Z AUTO 28019KT 9999 -SHRA SCT043 SCT051 OVC070 14/10 Q1024
21:00
V
14 °C 10 km+ 5.100 ft 230° 230° 7 kt METAR YPJT 191300Z AUTO 23007KT 9999 -SHRA SCT041 BKN051 BKN064 14/10 Q1024
20:30
V
13 °C 10 km+ 6.900 ft 020° 020° 4 kt METAR YPJT 191230Z AUTO 02004KT 9999 // OVC069 13/10 Q1023 RF00.0/000.4
20:00
V
15 °C 10 km+ 6.900 ft 310° 310° 6 kt METAR YPJT 191200Z AUTO 31006KT 9999 // OVC069 15/08 Q1023 RF00.0/000.4
19:30
V
14 °C 10 km+ 6.100 ft 350° 350° 5 kt METAR YPJT 191130Z AUTO 35005KT 9999 // FEW046 OVC061 14/10 Q1023
19:00
V
14 °C 10 km+ 4.500 ft 230° 230° 1 kt METAR YPJT 191100Z AUTO 23001KT 9999 // SCT041 BKN045 BKN052 14/10 Q1023
18:30
V
14 °C 10 km+ 7.000 ft 280° 280° 6 kt METAR YPJT 191030Z AUTO 28006KT 9999 // FEW041 BKN070 14/09 Q1023
18:00
V
15 °C 10 km+ - 280° 280° 7 kt METAR YPJT 191000Z AUTO 28007KT 9999 // FEW043 SCT070 15/09 Q1023
17:30
V
15 °C 10 km+ 7.000 ft 280° 280° 7 kt METAR YPJT 190930Z AUTO 28007KT 9999 // FEW049 BKN070 15/09 Q1023
17:00
V
16 °C 10 km+ 6.200 ft 290° 290° 6 kt METAR YPJT 190900Z AUTO 29006KT 9999 // SCT046 OVC062 OVC069 16/10 Q1023
16:30
V
15 °C 10 km+ 4.100 ft 290° 290° 4 kt METAR YPJT 190830Z AUTO 29004KT 9999 -SHRA FEW036 BKN041 BKN047 15/11 Q1023
16:00
V
15 °C 10 km+ 6.600 ft 260° 260° 5 kt METAR YPJT 190800Z AUTO 26005KT 9999 // FEW046 BKN066 15/10 Q1023
15:30
V
14 °C 10 km+ 5.300 ft 220° 220° 12 kt METAR YPJT 190730Z AUTO 22012KT 9999 // SCT044 BKN053 OVC064 14/11 Q1023
15:08
V
14 °C 10 km+ 5.300 ft 250° 250° 21 kt METAR YPJT 190708Z AUTO 25021KT 9999 -RA SCT047 BKN053 14/09 Q1023
15:00
V
17 °C 10 km+ - 260° 260° 9 kt METAR YPJT 190700Z AUTO 26009KT 9999 // SCT047 SCT053 17/07 Q1022
14:30
V
16 °C 10 km+ 6.000 ft 260° 260° 7 kt METAR YPJT 190630Z AUTO 26007KT 9999 // BKN060 OVC071 16/07 Q1022
14:00
V
15 °C 10 km+ 5.600 ft 240° 240° 13 kt METAR YPJT 190600Z AUTO 24013KT 9999 -SHRA FEW047 BKN056 OVC069 15/09 Q1023
报告变更